Time;durP1;ratioP1;P1;durP2;ratioP2;P2;SDS_P1;SDS_P2;PMS_P1;PMS_P2;Temp;Humidity;BMP_temperature;BMP_pressure;BME280_temperature;BME280_humidity;BME280_pressure;Samples;Min_cycle;Max_cycle;Signal;HPM_P1;HPM_P2
2023/05/11 00:02:00;;;;;;;0.30;0.30;;;;;;;28.65;37.89;99552.94;7398918;19;20010;-58
2023/05/11 00:04:27;;;;;;;0.50;0.50;;;;;;;28.73;37.88;99542.81;7399523;19;20015;-58
2023/05/11 00:06:54;;;;;;;0.35;0.20;;;;;;;28.77;37.93;99548.06;7402267;19;20018;-58
2023/05/11 00:09:20;;;;;;;1.00;0.40;;;;;;;28.74;37.54;99550.03;7399230;19;20007;-58
2023/05/11 00:11:46;;;;;;;0.22;0.22;;;;;;;28.66;37.80;99542.97;7401912;19;20019;-57
2023/05/11 00:14:12;;;;;;;2.05;0.75;;;;;;;28.70;37.65;99548.97;7397614;19;20018;-58
2023/05/11 00:16:38;;;;;;;1.52;1.40;;;;;;;28.75;37.93;99542.19;7398497;19;20111;-58
2023/05/11 00:19:05;;;;;;;0.70;0.70;;;;;;;28.69;37.20;99545.38;7399094;19;20025;-58
2023/05/11 00:21:31;;;;;;;0.40;0.40;;;;;;;28.62;37.68;99542.69;7399227;19;20019;-58
2023/05/11 00:23:57;;;;;;;0.43;0.30;;;;;;;28.06;38.41;99545.84;7397753;19;20539;-58
2023/05/11 00:26:23;;;;;;;3.67;0.95;;;;;;;28.10;38.44;99539.66;7398959;19;20011;-58
2023/05/11 00:28:50;;;;;;;1.42;1.27;;;;;;;27.89;38.54;99551.72;7397990;19;20109;-57
2023/05/11 00:31:16;;;;;;;0.80;0.80;;;;;;;28.40;38.01;99556.16;7399908;19;20015;-58
2023/05/11 00:33:43;;;;;;;0.50;0.50;;;;;;;28.65;37.74;99552.94;7396948;19;20017;-58
2023/05/11 00:36:09;;;;;;;5.03;1.75;;;;;;;28.74;37.50;99555.03;7397824;19;20038;-58
2023/05/11 00:38:39;;;;;;;1.45;0.55;;;;;;;28.64;37.73;99548.56;7398759;19;20014;-58
2023/05/11 00:41:06;;;;;;;0.95;0.55;;;;;;;28.78;37.99;99561.03;7398280;19;20096;-58
2023/05/11 00:43:33;;;;;;;2.00;0.45;;;;;;;28.80;38.34;99555.44;7399477;19;20015;-58
2023/05/11 00:46:01;;;;;;;0.52;0.47;;;;;;;28.88;38.05;99558.88;7397464;19;20022;-58
2023/05/11 00:48:28;;;;;;;2.92;0.93;;;;;;;28.82;37.83;99561.31;7395848;19;20018;-58
2023/05/11 00:50:54;;;;;;;0.28;0.28;;;;;;;28.71;38.38;99556.25;7395338;19;20351;-57
2023/05/11 00:53:21;;;;;;;1.65;0.80;;;;;;;28.00;39.12;99559.72;7398304;19;20084;-57
2023/05/11 00:55:47;;;;;;;0.93;0.65;;;;;;;28.35;38.52;99554.38;7397649;19;20017;-57
2023/05/11 00:58:14;;;;;;;0.50;0.50;;;;;;;28.42;38.51;99548.47;7397294;19;20023;-57
2023/05/11 01:00:40;;;;;;;0.20;0.20;;;;;;;28.78;38.06;99546.72;7397983;19;20010;-58
2023/05/11 01:03:07;;;;;;;0.55;0.50;;;;;;;28.84;37.66;99550.75;7395942;19;20015;-57
2023/05/11 01:05:48;;;;;;;0.68;0.40;;;;;;;28.96;37.89;99551.59;7396567;19;20065;-57
2023/05/11 01:08:20;;;;;;;5.68;0.93;;;;;;;28.88;37.42;99553.13;7399307;19;20006;-58
2023/05/11 01:10:57;;;;;;;0.57;0.57;;;;;;;28.92;37.67;99554.16;7397267;19;20006;-57
2023/05/11 01:13:53;;;;;;;0.45;0.45;;;;;;;28.97;37.62;99549.47;7396803;19;20363;-57
2023/05/11 01:16:23;;;;;;;0.32;0.32;;;;;;;29.06;37.95;99557.28;7397024;19;20019;-58
2023/05/11 01:18:59;;;;;;;0.68;0.68;;;;;;;28.89;38.03;99560.38;7395186;19;20074;-57
2023/05/11 01:21:32;;;;;;;3.03;0.50;;;;;;;29.06;38.34;99557.28;7394648;19;20010;-57
2023/05/11 01:24:19;;;;;;;0.45;0.22;;;;;;;29.21;37.74;99554.03;7396170;19;20021;-57
2023/05/11 01:27:02;;;;;;;0.38;0.35;;;;;;;29.29;37.56;99562.44;7397355;19;20023;-58
2023/05/11 01:30:02;;;;;;;0.40;0.40;;;;;;;29.30;37.55;99558.97;7396284;19;20014;-58
2023/05/11 01:32:31;;;;;;;0.43;0.43;;;;;;;29.31;37.74;99551.09;7397954;19;20025;-57
2023/05/11 01:35:13;;;;;;;0.60;0.40;;;;;;;29.26;37.37;99558.66;7393414;19;20007;-57
2023/05/11 01:37:47;;;;;;;0.40;0.40;;;;;;;29.15;37.18;99559.34;7392918;19;20017;-58
2023/05/11 01:40:16;;;;;;;0.30;0.30;;;;;;;29.03;37.81;99558.50;7395957;19;20029;-57
2023/05/11 01:42:52;;;;;;;0.77;0.68;;;;;;;28.88;37.49;99558.88;7395706;19;20462;-57
2023/05/11 01:45:21;;;;;;;0.25;0.25;;;;;;;28.66;38.24;99560.94;7399176;19;20014;-58
2023/05/11 01:47:49;;;;;;;0.30;0.30;;;;;;;28.65;38.12;99558.69;7393598;19;20010;-58
2023/05/11 01:50:18;;;;;;;3.17;0.70;;;;;;;28.61;38.56;99555.53;7395399;19;20047;-58
2023/05/11 01:52:46;;;;;;;1.27;0.50;;;;;;;28.62;38.20;99566.38;7394935;19;20414;-60
2023/05/11 01:55:16;;;;;;;0.40;0.40;;;;;;;28.63;38.33;99570.00;7394163;19;20070;-58
2023/05/11 01:57:44;;;;;;;1.65;0.68;;;;;;;28.66;38.53;99571.63;7395651;19;20014;-58
2023/05/11 02:00:11;;;;;;;0.20;0.20;;;;;;;28.57;38.38;99572.41;7393909;19;20010;-58
2023/05/11 02:02:44;;;;;;;0.73;0.38;;;;;;;28.56;38.66;99571.66;7395279;19;20002;-58
2023/05/11 02:05:10;;;;;;;0.90;0.90;;;;;;;28.52;38.59;99574.97;7395533;19;20451;-58
2023/05/11 02:07:41;;;;;;;0.98;0.65;;;;;;;28.42;38.49;99577.13;7395857;19;20014;-58
2023/05/11 02:10:09;;;;;;;1.48;0.30;;;;;;;28.49;38.68;99587.66;7393651;19;20049;-59
2023/05/11 02:12:37;;;;;;;2.22;0.45;;;;;;;28.55;39.00;99584.47;7392804;19;20006;-58
2023/05/11 02:15:07;;;;;;;0.43;0.43;;;;;;;28.59;39.16;99584.06;7391669;19;20015;-57
2023/05/11 02:17:34;;;;;;;3.13;0.43;;;;;;;28.42;39.16;99587.81;7393109;19;20478;-58
2023/05/11 02:20:02;;;;;;;2.20;0.47;;;;;;;28.42;38.99;99582.09;7390988;19;20022;-62
2023/05/11 02:22:32;;;;;;;2.30;0.60;;;;;;;28.53;38.50;99582.22;7390955;19;20019;-62
2023/05/11 02:24:58;;;;;;;0.77;0.77;;;;;;;28.51;38.72;99587.81;7390674;19;20035;-62
2023/05/11 02:27:25;;;;;;;1.02;0.70;;;;;;;28.56;38.64;99585.22;7390424;19;20010;-60
2023/05/11 02:29:51;;;;;;;0.90;0.30;;;;;;;28.41;39.23;99580.59;7390929;19;20015;-60
2023/05/11 02:32:21;;;;;;;0.35;0.30;;;;;;;28.53;38.66;99581.47;7391938;19;20010;-61
2023/05/11 02:34:58;;;;;;;0.50;0.43;;;;;;;28.51;38.72;99582.06;7390814;19;20010;-61
2023/05/11 02:37:27;;;;;;;0.80;0.50;;;;;;;28.59;38.97;99595.50;7391786;19;20011;-61
2023/05/11 02:40:04;;;;;;;1.42;0.38;;;;;;;28.66;38.60;99591.69;7393260;19;20328;-61
2023/05/11 02:42:35;;;;;;;1.17;0.88;;;;;;;28.83;38.31;99597.97;7392039;19;20014;-61
2023/05/11 02:45:06;;;;;;;0.70;0.70;;;;;;;28.86;38.48;99596.00;7394777;19;20018;-61
2023/05/11 02:47:41;;;;;;;0.50;0.35;;;;;;;28.89;38.66;99594.78;7391786;19;20021;-61
2023/05/11 02:50:08;;;;;;;0.73;0.32;;;;;;;28.89;38.69;99598.38;7391299;19;20340;-61
2023/05/11 02:52:42;;;;;;;0.20;0.10;;;;;;;28.88;38.70;99594.03;7392155;19;20017;-61
2023/05/11 02:55:09;;;;;;;0.25;0.25;;;;;;;28.86;38.69;99596.00;7393306;19;20351;-61
2023/05/11 02:57:37;;;;;;;0.20;0.20;;;;;;;28.69;38.71;99596.22;7393975;19;20023;-61
2023/05/11 03:00:07;;;;;;;2.75;0.82;;;;;;;28.78;38.34;99590.47;7391878;19;20352;-61
2023/05/11 03:02:33;;;;;;;0.70;0.60;;;;;;;28.75;38.71;99590.91;7390092;19;20582;-61
2023/05/11 03:05:00;;;;;;;0.80;0.80;;;;;;;28.73;38.69;99590.78;7390850;19;20026;-60
2023/05/11 03:07:28;;;;;;;0.25;0.25;;;;;;;28.71;38.64;99593.50;7390894;19;20014;-61
2023/05/11 03:09:54;;;;;;;0.47;0.47;;;;;;;28.84;38.11;99593.00;7393512;19;20074;-60
2023/05/11 03:12:21;;;;;;;0.77;0.52;;;;;;;28.75;38.33;99590.91;7398316;19;20014;-61
2023/05/11 03:14:48;;;;;;;0.50;0.32;;;;;;;28.73;38.10;99593.63;7396416;19;20499;-61
2023/05/11 03:17:15;;;;;;;1.33;0.73;;;;;;;28.79;38.48;99591.19;7401227;19;20010;-61
2023/05/11 03:19:42;;;;;;;0.75;0.68;;;;;;;28.92;37.91;99599.28;7400660;19;20021;-61
2023/05/11 03:22:10;;;;;;;0.35;0.35;;;;;;;28.68;38.14;99595.47;7398480;19;20014;-60
2023/05/11 03:24:38;;;;;;;0.40;0.40;;;;;;;28.78;38.34;99601.94;7399302;19;20028;-60
2023/05/11 03:27:07;;;;;;;1.30;0.30;;;;;;;28.93;38.22;99601.56;7398371;19;20014;-60
2023/05/11 03:29:37;;;;;;;0.85;0.40;;;;;;;28.95;37.58;99598.09;7401300;19;20022;-60
2023/05/11 03:32:04;;;;;;;1.07;0.30;;;;;;;28.97;37.70;99601.09;7398743;19;20014;-60
2023/05/11 03:34:34;;;;;;;1.42;0.65;;;;;;;28.99;38.24;99598.34;7397485;19;20011;-61
2023/05/11 03:37:02;;;;;;;1.98;0.95;;;;;;;28.99;37.81;99598.34;7400336;19;20096;-61
2023/05/11 03:39:31;;;;;;;0.45;0.45;;;;;;;28.94;37.62;99590.81;7398805;19;20066;-61
2023/05/11 03:41:59;;;;;;;0.68;0.40;;;;;;;28.91;38.05;99595.66;7402618;19;20011;-61
2023/05/11 03:44:27;;;;;;;0.73;0.73;;;;;;;28.91;38.15;99592.06;7399063;19;20361;-61
2023/05/11 03:46:54;;;;;;;0.28;0.28;;;;;;;28.92;37.67;99599.28;7400176;19;20074;-61
2023/05/11 03:49:22;;;;;;;0.30;0.10;;;;;;;28.78;37.58;99601.16;7398041;19;20091;-61
2023/05/11 03:51:48;;;;;;;1.35;0.47;;;;;;;28.78;37.69;99595.44;7399671;19;20018;-61
2023/05/11 03:54:15;;;;;;;0.30;0.30;;;;;;;28.80;37.92;99598.44;7396679;19;20031;-60
2023/05/11 03:56:41;;;;;;;0.43;0.43;;;;;;;28.52;37.88;99602.91;7399021;19;20380;-60
2023/05/11 03:59:08;;;;;;;1.15;0.77;;;;;;;28.46;38.04;99596.69;7398161;19;20018;-60
2023/05/11 04:01:35;;;;;;;0.15;0.15;;;;;;;28.46;38.20;99597.47;7398091;19;20078;-60
2023/05/11 04:04:01;;;;;;;1.77;0.52;;;;;;;28.43;38.24;99604.41;7396871;19;20078;-61
2023/05/11 04:06:27;;;;;;;0.30;0.30;;;;;;;28.41;38.75;99595.66;7403139;19;20022;-61
2023/05/11 04:09:05;;;;;;;0.65;0.52;;;;;;;28.68;38.34;99598.34;7397473;19;20023;-61
2023/05/11 04:11:35;;;;;;;5.47;0.93;;;;;;;28.67;38.07;99599.72;7402263;19;20031;-60
2023/05/11 04:14:01;;;;;;;1.08;0.63;;;;;;;28.73;38.21;99602.25;7398273;19;20467;-61
2023/05/11 04:16:27;;;;;;;0.60;0.60;;;;;;;28.80;38.37;99598.44;7400935;19;20018;-61
2023/05/11 04:18:54;;;;;;;0.70;0.63;;;;;;;28.86;38.45;99601.75;7399021;19;20487;-59
2023/05/11 04:21:20;;;;;;;1.27;0.38;;;;;;;29.00;38.18;99599.88;7399249;19;20014;-59
2023/05/11 04:23:47;;;;;;;0.40;0.40;;;;;;;29.00;37.98;99606.34;7398733;19;20069;-59
2023/05/11 04:26:13;;;;;;;3.20;0.47;;;;;;;28.99;38.33;99609.84;7395389;19;20015;-59
2023/05/11 04:28:40;;;;;;;0.52;0.52;;;;;;;29.00;37.76;99605.63;7400759;19;20012;-60
2023/05/11 04:31:06;;;;;;;0.90;0.82;;;;;;;28.98;37.89;99605.44;7397540;19;20499;-59
2023/05/11 04:33:32;;;;;;;1.20;0.38;;;;;;;28.83;38.27;99617.28;7397062;19;20031;-60
2023/05/11 04:35:58;;;;;;;10.82;0.65;;;;;;;28.74;38.68;99606.63;7394567;19;20014;-60
2023/05/11 04:38:24;;;;;;;0.30;0.30;;;;;;;28.70;38.46;99606.31;7397957;19;20074;-59
2023/05/11 04:40:50;;;;;;;2.60;0.63;;;;;;;28.59;38.49;99609.84;7400938;19;20104;-60
2023/05/11 04:43:18;;;;;;;1.85;1.00;;;;;;;28.56;38.17;99608.91;7396513;19;20018;-59
2023/05/11 04:45:48;;;;;;;2.85;0.88;;;;;;;28.41;38.47;99609.97;7396118;19;20410;-59
2023/05/11 04:48:15;;;;;;;0.30;0.30;;;;;;;28.31;38.52;99612.13;7396481;19;20368;-59
2023/05/11 04:50:41;;;;;;;2.30;0.77;;;;;;;28.25;39.15;99613.78;7395812;19;20018;-59
2023/05/11 04:53:08;;;;;;;0.77;0.75;;;;;;;27.92;39.25;99627.78;7395875;19;20016;-59
2023/05/11 04:55:35;;;;;;;2.97;0.35;;;;;;;28.12;39.47;99622.84;7393630;19;20021;-59
2023/05/11 04:58:01;;;;;;;1.92;0.93;;;;;;;28.47;39.27;99624.78;7397285;19;20010;-59
2023/05/11 05:00:27;;;;;;;0.55;0.40;;;;;;;28.56;39.35;99622.47;7396366;19;20029;-59
2023/05/11 05:02:54;;;;;;;0.25;0.25;;;;;;;28.65;39.07;99628.22;7398803;19;20007;-59
2023/05/11 05:05:20;;;;;;;1.05;0.70;;;;;;;28.69;39.19;99627.75;7396203;19;20015;-59
2023/05/11 05:07:46;;;;;;;0.68;0.47;;;;;;;28.47;39.46;99630.50;7397311;19;20404;-59
2023/05/11 05:10:12;;;;;;;2.00;0.75;;;;;;;28.37;39.60;99638.34;7396022;19;20015;-59
2023/05/11 05:12:39;;;;;;;1.77;1.55;;;;;;;28.37;39.66;99632.63;7394949;19;20025;-59
2023/05/11 05:15:06;;;;;;;6.20;0.98;;;;;;;28.31;40.03;99631.41;7397363;19;20014;-59
2023/05/11 05:17:32;;;;;;;7.47;1.08;;;;;;;28.34;39.95;99644.53;7394829;19;20015;-59
2023/05/11 05:19:58;;;;;;;1.65;0.38;;;;;;;28.42;39.87;99642.25;7395803;19;20574;-59
2023/05/11 05:22:25;;;;;;;0.30;0.30;;;;;;;28.45;40.25;99647.53;7397629;19;20003;-59
2023/05/11 05:24:51;;;;;;;3.00;0.82;;;;;;;28.60;40.40;99646.47;7395116;19;20010;-59
2023/05/11 05:27:17;;;;;;;0.50;0.28;;;;;;;28.64;40.09;99657.47;7398574;19;20355;-58
2023/05/11 05:29:44;;;;;;;2.38;1.58;;;;;;;28.63;39.88;99656.72;7395086;19;20078;-59
2023/05/11 05:32:10;;;;;;;0.50;0.50;;;;;;;28.67;40.45;99659.91;7395760;19;20014;-59
2023/05/11 05:34:36;;;;;;;0.45;0.32;;;;;;;28.73;40.18;99653.84;7394566;19;20022;-59
2023/05/11 05:37:03;;;;;;;0.88;0.60;;;;;;;28.64;40.28;99660.34;7394367;19;20096;-60
2023/05/11 05:39:29;;;;;;;2.95;0.50;;;;;;;28.75;40.17;99665.44;7398205;19;20027;-59
2023/05/11 05:41:55;;;;;;;16.75;1.10;;;;;;;28.79;40.27;99654.25;7397263;19;20399;-59
2023/05/11 05:44:23;;;;;;;1.30;0.40;;;;;;;29.07;39.90;99667.75;7395108;19;20018;-59
2023/05/11 05:46:49;;;;;;;1.00;0.82;;;;;;;29.17;39.82;99668.50;7396620;19;20014;-59
2023/05/11 05:49:16;;;;;;;4.13;0.93;;;;;;;29.08;40.08;99669.25;7397320;19;20022;-59
2023/05/11 05:51:42;;;;;;;0.50;0.47;;;;;;;29.27;40.15;99674.19;7394324;19;20022;-59
2023/05/11 05:54:12;;;;;;;0.30;0.30;;;;;;;29.38;39.51;99676.41;7393433;19;20044;-59
2023/05/11 05:56:39;;;;;;;0.68;0.52;;;;;;;29.35;39.63;99677.63;7394017;19;20014;-59
2023/05/11 05:59:07;;;;;;;1.48;0.77;;;;;;;29.37;39.73;99675.63;7394125;19;20022;-59
2023/05/11 06:01:34;;;;;;;0.57;0.32;;;;;;;29.45;40.12;99672.59;7396906;19;20015;-59
2023/05/11 06:04:01;;;;;;;0.30;0.30;;;;;;;29.50;39.88;99675.13;7393314;19;20014;-59
2023/05/11 06:06:27;;;;;;;1.30;0.73;;;;;;;29.56;40.12;99681.28;7396223;19;20014;-59
2023/05/11 06:08:53;;;;;;;0.82;0.43;;;;;;;29.69;40.39;99680.75;7395458;19;20006;-59
2023/05/11 06:11:20;;;;;;;1.05;0.20;;;;;;;29.70;40.13;99676.50;7395781;19;20014;-60
2023/05/11 06:13:46;;;;;;;0.10;0.10;;;;;;;29.79;40.36;99686.47;7396728;19;20011;-59
2023/05/11 06:16:12;;;;;;;0.63;0.63;;;;;;;29.92;40.04;99678.06;7394415;19;20014;-58
2023/05/11 06:18:39;;;;;;;0.43;0.43;;;;;;;29.97;40.42;99679.81;7391856;19;20021;-59
2023/05/11 06:21:06;;;;;;;0.50;0.43;;;;;;;29.87;40.70;99690.63;7392802;19;20460;-60
2023/05/11 06:23:33;;;;;;;0.20;0.13;;;;;;;29.87;41.04;99696.38;7394384;19;20027;-60
2023/05/11 06:25:59;;;;;;;1.05;0.20;;;;;;;29.95;40.94;99696.91;7393572;19;20044;-59
2023/05/11 06:28:28;;;;;;;1.15;0.40;;;;;;;29.59;41.16;99705.88;7392918;19;20022;-59
2023/05/11 06:30:58;;;;;;;;;;;;;;;29.65;41.43;99703.44;7392902;19;20018;-59
2023/05/11 06:33:26;;;;;;;0.10;0.10;;;;;;;29.41;41.49;99701.75;7395716;19;19974;-59
2023/05/11 06:35:53;;;;;;;0.40;0.40;;;;;;;28.76;42.53;99707.81;7393437;19;20022;-59
2023/05/11 06:38:19;;;;;;;2.33;0.68;;;;;;;29.18;42.40;99701.56;7391943;19;20031;-59
2023/05/11 06:40:46;;;;;;;2.15;0.60;;;;;;;29.97;41.53;99708.53;7393290;19;20015;-59
2023/05/11 06:43:12;;;;;;;7.57;0.47;;;;;;;30.26;41.35;99711.19;7391393;19;20014;-59
2023/05/11 06:45:49;;;;;;;0.40;0.40;;;;;;;30.38;41.44;99709.19;7391236;19;20479;-59
2023/05/11 06:48:15;;;;;;;0.32;0.13;;;;;;;30.28;41.24;99710.56;7392929;19;20011;-59
2023/05/11 06:50:41;;;;;;;1.80;0.95;;;;;;;30.29;41.31;99709.22;7392425;19;20018;-59
2023/05/11 06:53:12;;;;;;;0.75;0.20;;;;;;;30.31;41.29;99710.13;7393988;19;20039;-60
2023/05/11 06:55:38;;;;;;;1.27;0.88;;;;;;;30.46;41.48;99720.44;7389796;19;20380;-60
2023/05/11 06:58:04;;;;;;;1.50;0.80;;;;;;;30.66;41.56;99713.91;7392614;19;20039;-59
2023/05/11 07:00:30;;;;;;;2.88;1.33;;;;;;;30.84;41.34;99713.56;7395524;19;20018;-59
2023/05/11 07:02:57;;;;;;;0.40;0.10;;;;;;;30.82;41.41;99711.31;7393834;19;20019;-60
2023/05/11 07:05:23;;;;;;;2.47;0.82;;;;;;;30.96;41.69;99714.38;7394701;19;20048;-60
2023/05/11 07:07:49;;;;;;;6.40;1.13;;;;;;;31.10;41.23;99727.53;7393303;19;20078;-60
2023/05/11 07:10:15;;;;;;;1.48;0.93;;;;;;;31.15;41.17;99714.91;7392587;19;20014;-60
2023/05/11 07:12:41;;;;;;;0.50;0.50;;;;;;;31.30;40.93;99720.16;7395436;19;20031;-60
2023/05/11 07:15:08;;;;;;;1.15;0.50;;;;;;;31.42;40.94;99720.22;7394008;19;20015;-60
2023/05/11 07:17:34;;;;;;;2.45;0.70;;;;;;;31.42;41.51;99720.22;7397145;19;20015;-60
2023/05/11 07:20:00;;;;;;;0.98;0.57;;;;;;;31.49;40.77;99719.19;7395016;19;20014;-60
2023/05/11 07:22:27;;;;;;;2.22;0.52;;;;;;;31.45;40.95;99718.22;7396812;19;20409;-61
2023/05/11 07:24:53;;;;;;;1.15;0.55;;;;;;;31.54;40.69;99725.94;7396531;19;20375;-60
2023/05/11 07:27:19;;;;;;;0.82;0.20;;;;;;;31.42;40.85;99732.47;7392542;19;20014;-60
2023/05/11 07:29:45;;;;;;;1.50;0.57;;;;;;;31.40;40.78;99726.56;7393013;19;20014;-60
2023/05/11 07:32:12;;;;;;;3.92;1.13;;;;;;;31.47;41.40;99726.97;7392462;19;20019;-60
2023/05/11 07:34:39;;;;;;;2.60;0.77;;;;;;;31.33;41.43;99721.81;7391588;19;20023;-60
2023/05/11 07:37:07;;;;;;;2.05;0.90;;;;;;;31.36;41.59;99729.19;7397082;19;20014;-60
2023/05/11 07:39:33;;;;;;;2.88;0.77;;;;;;;31.44;41.35;99723.22;7393382;19;20070;-61
2023/05/11 07:41:59;;;;;;;2.15;0.63;;;;;;;31.53;41.63;99724.47;7396883;19;20016;-60
2023/05/11 07:44:25;;;;;;;3.50;1.10;;;;;;;31.41;41.66;99730.97;7392379;19;20540;-60
2023/05/11 07:46:51;;;;;;;2.10;0.80;;;;;;;31.36;41.66;99737.09;7395459;19;20637;-60
2023/05/11 07:49:18;;;;;;;2.75;0.82;;;;;;;31.48;41.70;99728.47;7392500;19;20035;-60
2023/05/11 07:51:44;;;;;;;1.63;0.82;;;;;;;31.48;42.06;99734.22;7392537;19;20007;-60
2023/05/11 07:54:10;;;;;;;2.42;0.68;;;;;;;31.40;41.65;99732.34;7394820;19;20040;-61
2023/05/11 07:56:36;;;;;;;1.33;0.60;;;;;;;31.65;41.96;99736.72;7394493;19;20458;-61
2023/05/11 07:59:02;;;;;;;3.40;0.65;;;;;;;32.12;41.25;99733.16;7395792;19;20018;-60
2023/05/11 08:01:29;;;;;;;3.42;1.17;;;;;;;32.18;41.12;99729.91;7401520;19;20324;-60
2023/05/11 08:03:55;;;;;;;1.05;1.00;;;;;;;32.23;41.06;99734.50;7402070;19;20015;-60
2023/05/11 08:06:21;;;;;;;2.03;0.63;;;;;;;32.29;41.07;99734.13;7400800;19;20023;-61
2023/05/11 08:08:47;;;;;;;5.13;1.02;;;;;;;32.10;41.22;99740.94;7399880;19;20070;-60
2023/05/11 08:11:13;;;;;;;1.45;0.82;;;;;;;32.13;40.89;99739.69;7401661;19;20014;-60
2023/05/11 08:13:39;;;;;;;2.33;1.10;;;;;;;27.17;45.16;99749.25;7398834;19;20010;-61
2023/05/11 08:16:06;;;;;;;8.95;1.27;;;;;;;31.27;42.53;99750.19;7395194;19;20047;-61
2023/05/11 08:18:32;;;;;;;2.50;0.70;;;;;;;31.67;41.89;99748.38;7398392;19;20018;-60
2023/05/11 08:20:58;;;;;;;1.45;0.80;;;;;;;31.89;41.58;99755.50;7401695;19;20490;-60
2023/05/11 08:23:25;;;;;;;3.03;1.02;;;;;;;31.91;40.67;99744.84;7398284;19;20010;-60
2023/05/11 08:25:53;;;;;;;6.65;1.25;;;;;;;32.49;40.14;99750.50;7398447;19;20015;-60
2023/05/11 08:28:20;;;;;;;8.65;2.03;;;;;;;32.38;40.44;99741.88;7397800;19;20034;-60
2023/05/11 08:30:53;;;;;;;2.00;0.90;;;;;;;32.77;39.63;99749.25;7397668;19;20011;-60
2023/05/11 08:33:19;;;;;;;0.90;0.50;;;;;;;32.65;39.99;99747.81;7400417;19;20018;-60
2023/05/11 08:35:45;;;;;;;2.97;1.50;;;;;;;32.22;40.52;99747.44;7395504;19;20042;-60
2023/05/11 08:38:13;;;;;;;1.90;0.63;;;;;;;32.30;40.32;99747.91;7397875;19;20018;-60
2023/05/11 08:40:45;;;;;;;2.95;1.08;;;;;;;33.06;39.75;99756.66;7398206;19;20014;-60
2023/05/11 08:43:13;;;;;;;4.45;1.65;;;;;;;33.04;39.44;99754.41;7395793;19;20113;-59
2023/05/11 08:45:46;;;;;;;11.90;1.15;;;;;;;33.39;39.33;99748.41;7402214;19;20066;-60
2023/05/11 08:48:16;;;;;;;2.33;0.82;;;;;;;33.56;39.10;99747.91;7396615;19;20007;-60
2023/05/11 08:50:44;;;;;;;2.70;1.13;;;;;;;33.78;38.76;99745.47;7398664;19;20018;-60
2023/05/11 08:53:11;;;;;;;5.93;0.85;;;;;;;34.00;38.43;99753.16;7396469;19;20021;-59
2023/05/11 08:55:39;;;;;;;4.93;1.25;;;;;;;33.87;38.45;99751.03;7397879;19;20320;-59
2023/05/11 08:58:06;;;;;;;5.45;2.35;;;;;;;34.01;38.51;99748.91;7397268;19;20332;-60
2023/05/11 09:00:33;;;;;;;3.28;1.80;;;;;;;34.19;37.91;99752.75;7397859;19;20014;-59
2023/05/11 09:02:59;;;;;;;3.28;1.63;;;;;;;34.38;37.46;99750.75;7397489;19;20014;-62
2023/05/11 09:05:26;;;;;;;2.45;1.10;;;;;;;34.27;37.83;99750.25;7399916;19;20011;-62
2023/05/11 09:07:58;;;;;;;3.90;1.40;;;;;;;34.28;38.28;99748.84;7397195;19;20379;-62
2023/05/11 09:10:24;;;;;;;3.25;0.88;;;;;;;34.43;37.63;99752.47;7396347;19;20017;-62
2023/05/11 09:12:50;;;;;;;1.35;1.00;;;;;;;34.30;36.96;99751.88;7395827;19;20010;-62
2023/05/11 09:15:16;;;;;;;2.53;1.38;;;;;;;34.34;36.68;99752.06;7397465;19;20117;-62
2023/05/11 09:17:42;;;;;;;2.42;0.80;;;;;;;34.27;36.61;99753.16;7396745;19;20023;-62
2023/05/11 09:20:09;;;;;;;3.30;1.27;;;;;;;34.41;36.25;99755.28;7395937;19;20007;-61
2023/05/11 09:22:44;;;;;;;2.38;0.68;;;;;;;34.51;37.08;99750.00;7396115;19;20019;-62
2023/05/11 09:25:12;;;;;;;2.72;1.25;;;;;;;34.87;36.29;99749.66;7399025;19;20018;-62
2023/05/11 09:27:45;;;;;;;;;;;;;;;34.87;35.84;99743.88;7393584;19;20031;-61
2023/05/11 09:30:18;;;;;;;3.22;1.10;;;;;;;34.67;35.80;99753.72;7394503;19;20335;-62
2023/05/11 09:32:58;;;;;;;0.75;0.70;;;;;;;35.37;34.78;99757.13;7394054;19;20045;-62
2023/05/11 09:35:29;;;;;;;4.50;1.45;;;;;;;35.60;34.38;99742.31;7395721;19;20031;-62
2023/05/11 09:37:57;;;;;;;1.73;0.95;;;;;;;35.89;35.33;99743.59;7396289;19;20019;-62
2023/05/11 09:40:25;;;;;;;2.15;0.90;;;;;;;35.91;34.03;99747.28;7397612;19;20070;-61
2023/05/11 09:42:51;;;;;;;0.95;0.65;;;;;;;35.79;34.08;99740.97;7396305;19;20010;-62
2023/05/11 09:45:36;;;;;;;1.33;0.95;;;;;;;34.99;34.94;99746.59;7395568;19;20014;-62
2023/05/11 09:48:04;;;;;;;1.25;1.05;;;;;;;35.76;34.53;99748.81;7396332;19;20082;-62
2023/05/11 09:50:34;;;;;;;2.10;1.25;;;;;;;35.71;34.34;99752.94;7395818;19;20062;-62
2023/05/11 09:53:01;;;;;;;1.73;1.08;;;;;;;35.58;33.58;99747.25;7396350;19;20510;-62
2023/05/11 09:55:28;;;;;;;8.73;1.23;;;;;;;35.43;33.87;99737.13;7397686;19;20042;-61
2023/05/11 09:57:57;;;;;;;4.68;2.40;;;;;;;35.36;33.61;99744.06;7395433;19;20041;-62
2023/05/11 10:00:26;;;;;;;1.58;0.95;;;;;;;35.26;33.75;99746.47;7395666;19;20021;-62
2023/05/11 10:03:06;;;;;;;3.90;1.60;;;;;;;35.18;34.45;99754.78;7395575;19;20332;-62
2023/05/11 10:05:36;;;;;;;1.57;0.97;;;;;;;35.04;34.61;99746.16;7397328;19;20022;-62
2023/05/11 10:08:03;;;;;;;5.97;1.17;;;;;;;34.94;34.02;99750.69;7394769;19;20031;-62
2023/05/11 10:10:31;;;;;;;3.08;1.65;;;;;;;34.82;34.29;99747.22;7395676;19;20408;-62
2023/05/11 10:13:00;;;;;;;4.30;1.42;;;;;;;35.11;34.73;99758.06;7395494;19;20104;-62
2023/05/11 10:15:27;;;;;;;3.67;1.88;;;;;;;34.81;34.75;99757.28;7396152;19;20027;-62
2023/05/11 10:17:55;;;;;;;3.35;1.13;;;;;;;34.90;34.69;99753.41;7393606;19;20011;-62
2023/05/11 10:20:22;;;;;;;3.42;1.77;;;;;;;35.10;35.00;99750.75;7394376;19;20014;-62
2023/05/11 10:22:53;;;;;;;6.88;2.38;;;;;;;35.06;34.93;99748.44;7396935;19;20462;-62
2023/05/11 10:25:25;;;;;;;3.30;0.85;;;;;;;35.34;34.92;99755.56;7393062;19;20035;-62
2023/05/11 10:27:52;;;;;;;5.55;1.95;;;;;;;35.55;34.17;99755.13;7393606;19;20031;-62
2023/05/11 10:30:18;;;;;;;5.45;1.30;;;;;;;35.53;34.32;99760.81;7394216;19;20036;-62
2023/05/11 10:32:47;;;;;;;2.60;1.15;;;;;;;35.28;33.48;99758.16;7394390;19;20048;-61
2023/05/11 10:35:13;;;;;;;3.58;2.22;;;;;;;35.28;33.65;99758.16;7394768;19;20014;-59
2023/05/11 10:37:41;;;;;;;1.75;1.30;;;;;;;34.66;34.17;99763.78;7393731;19;20022;-59
2023/05/11 10:40:09;;;;;;;1.20;1.10;;;;;;;34.80;34.72;99764.50;7394115;19;20091;-59
2023/05/11 10:43:13;;;;;;;4.75;1.85;;;;;;;34.78;35.00;99770.91;7393723;19;20069;-60
2023/05/11 10:45:57;;;;;;;1.90;1.00;;;;;;;34.84;35.42;99774.13;7396883;19;20015;-59
2023/05/11 10:48:56;;;;;;;2.08;0.85;;;;;;;34.73;35.59;99772.13;7393485;19;20027;-59
2023/05/11 10:51:47;;;;;;;1.05;0.93;;;;;;;34.41;35.85;99779.16;7391731;19;20463;-59
2023/05/11 10:54:29;;;;;;;1.65;1.05;;;;;;;34.31;36.10;99776.50;7391699;19;20010;-62
2023/05/11 10:56:55;;;;;;;1.25;0.98;;;;;;;34.22;36.03;99786.13;7394138;19;20017;-61
2023/05/11 10:59:24;;;;;;;3.17;1.23;;;;;;;34.07;35.92;99774.47;7393274;19;20011;-61
2023/05/11 11:01:53;;;;;;;4.07;1.48;;;;;;;34.11;36.23;99774.72;7393788;19;20006;-61
2023/05/11 11:04:19;;;;;;;2.60;1.10;;;;;;;34.05;36.57;99783.81;7393174;19;20332;-61
2023/05/11 11:06:45;;;;;;;3.00;1.15;;;;;;;33.97;36.42;99782.59;7396213;19;20014;-61
2023/05/11 11:09:14;;;;;;;0.82;0.40;;;;;;;33.66;35.72;99776.59;7393446;19;20038;-61
2023/05/11 11:11:46;;;;;;;1.30;0.73;;;;;;;33.42;35.93;99781.75;7396066;19;20011;-61
2023/05/11 11:14:14;;;;;;;4.05;1.20;;;;;;;33.10;35.38;99769.19;7393561;19;20019;-61
2023/05/11 11:17:00;;;;;;;2.85;1.00;;;;;;;33.20;35.89;99774.78;7394258;19;20039;-61
2023/05/11 11:19:30;;;;;;;1.85;0.80;;;;;;;33.07;35.48;99772.59;7393261;19;20018;-62
2023/05/11 11:22:00;;;;;;;1.45;0.75;;;;;;;33.09;35.59;99772.72;7393757;19;20469;-61
2023/05/11 11:24:53;;;;;;;1.23;0.88;;;;;;;33.13;35.38;99767.16;7392855;19;20431;-61
2023/05/11 11:27:39;;;;;;;0.68;0.63;;;;;;;33.16;35.28;99768.78;7392848;19;20349;-61
2023/05/11 11:30:15;;;;;;;0.75;0.75;;;;;;;33.20;35.04;99769.00;7392043;19;20018;-61
2023/05/11 11:32:41;;;;;;;1.27;0.77;;;;;;;32.76;35.38;99779.50;7392738;19;20039;-61
2023/05/11 11:35:40;;;;;;;0.43;0.30;;;;;;;32.54;35.58;99781.09;7397224;19;20027;-61
2023/05/11 11:38:10;;;;;;;0.70;0.52;;;;;;;32.57;35.05;99779.81;7399797;19;20021;-62
2023/05/11 11:40:41;;;;;;;2.20;0.80;;;;;;;31.31;37.19;99784.25;7401305;19;20014;-61
2023/05/11 11:43:11;;;;;;;0.65;0.50;;;;;;;31.31;36.97;99785.00;7398556;19;20025;-62